sensor_id;sensor_type;location;lat;lon;timestamp;temperature;humidity
21037;DHT22;10677;50.942;4.028;2023-12-20T00:00:57;7.20;99.90
21037;DHT22;10677;50.942;4.028;2023-12-20T00:03:22;7.20;99.90
21037;DHT22;10677;50.942;4.028;2023-12-20T00:05:49;7.00;99.90
21037;DHT22;10677;50.942;4.028;2023-12-20T00:08:15;7.00;99.90
21037;DHT22;10677;50.942;4.028;2023-12-20T00:10:41;7.00;99.90
21037;DHT22;10677;50.942;4.028;2023-12-20T00:13:07;7.10;99.90
21037;DHT22;10677;50.942;4.028;2023-12-20T00:15:33;7.20;99.90
21037;DHT22;10677;50.942;4.028;2023-12-20T00:17:59;7.30;99.90
21037;DHT22;10677;50.942;4.028;2023-12-20T00:20:26;7.40;99.90
21037;DHT22;10677;50.942;4.028;2023-12-20T00:22:54;7.50;99.90
21037;DHT22;10677;50.942;4.028;2023-12-20T00:25:19;7.60;99.90
21037;DHT22;10677;50.942;4.028;2023-12-20T00:27:45;7.60;99.90
21037;DHT22;10677;50.942;4.028;2023-12-20T00:30:11;7.60;99.90
21037;DHT22;10677;50.942;4.028;2023-12-20T00:32:36;7.50;99.90
21037;DHT22;10677;50.942;4.028;2023-12-20T00:35:03;7.60;99.90
21037;DHT22;10677;50.942;4.028;2023-12-20T00:37:29;7.50;99.90
21037;DHT22;10677;50.942;4.028;2023-12-20T00:39:55;7.50;99.90
21037;DHT22;10677;50.942;4.028;2023-12-20T00:42:20;7.40;99.90
21037;DHT22;10677;50.942;4.028;2023-12-20T00:44:46;7.20;99.90
21037;DHT22;10677;50.942;4.028;2023-12-20T00:47:12;7.30;99.90
21037;DHT22;10677;50.942;4.028;2023-12-20T00:49:38;7.30;99.90
21037;DHT22;10677;50.942;4.028;2023-12-20T00:52:04;7.30;99.90
21037;DHT22;10677;50.942;4.028;2023-12-20T00:54:30;7.30;99.90
21037;DHT22;10677;50.942;4.028;2023-12-20T00:56:57;7.30;99.90
21037;DHT22;10677;50.942;4.028;2023-12-20T00:59:23;7.00;99.90
21037;DHT22;10677;50.942;4.028;2023-12-20T01:01:48;6.90;99.90
21037;DHT22;10677;50.942;4.028;2023-12-20T01:04:14;7.10;99.90
21037;DHT22;10677;50.942;4.028;2023-12-20T01:06:40;7.10;99.90
21037;DHT22;10677;50.942;4.028;2023-12-20T01:09:05;7.00;99.90
21037;DHT22;10677;50.942;4.028;2023-12-20T01:11:31;6.80;99.90
21037;DHT22;10677;50.942;4.028;2023-12-20T01:13:57;6.80;99.90
21037;DHT22;10677;50.942;4.028;2023-12-20T01:16:22;6.80;99.90
21037;DHT22;10677;50.942;4.028;2023-12-20T01:18:48;6.90;99.90
21037;DHT22;10677;50.942;4.028;2023-12-20T01:21:14;6.90;99.90
21037;DHT22;10677;50.942;4.028;2023-12-20T01:23:40;6.80;99.90
21037;DHT22;10677;50.942;4.028;2023-12-20T01:26:05;6.70;99.90
21037;DHT22;10677;50.942;4.028;2023-12-20T01:28:31;6.70;99.90
21037;DHT22;10677;50.942;4.028;2023-12-20T01:30:57;6.60;99.90
21037;DHT22;10677;50.942;4.028;2023-12-20T01:33:23;6.60;99.90
21037;DHT22;10677;50.942;4.028;2023-12-20T01:35:49;6.80;99.90
21037;DHT22;10677;50.942;4.028;2023-12-20T01:38:14;6.70;99.90
21037;DHT22;10677;50.942;4.028;2023-12-20T01:40:40;6.70;99.90
21037;DHT22;10677;50.942;4.028;2023-12-20T01:43:09;6.90;99.90
21037;DHT22;10677;50.942;4.028;2023-12-20T01:45:35;7.00;99.90
21037;DHT22;10677;50.942;4.028;2023-12-20T01:48:01;7.10;99.90
21037;DHT22;10677;50.942;4.028;2023-12-20T01:50:28;7.20;99.90
21037;DHT22;10677;50.942;4.028;2023-12-20T01:52:56;7.30;99.90
21037;DHT22;10677;50.942;4.028;2023-12-20T01:55:23;7.40;99.90
21037;DHT22;10677;50.942;4.028;2023-12-20T01:57:49;7.40;99.90
21037;DHT22;10677;50.942;4.028;2023-12-20T02:00:16;7.50;99.90
21037;DHT22;10677;50.942;4.028;2023-12-20T02:02:43;7.40;99.90
21037;DHT22;10677;50.942;4.028;2023-12-20T02:05:11;7.50;99.90
21037;DHT22;10677;50.942;4.028;2023-12-20T02:07:36;7.40;99.90
21037;DHT22;10677;50.942;4.028;2023-12-20T02:10:02;7.40;99.90
21037;DHT22;10677;50.942;4.028;2023-12-20T02:12:30;7.40;99.90
21037;DHT22;10677;50.942;4.028;2023-12-20T02:14:55;7.40;99.90
21037;DHT22;10677;50.942;4.028;2023-12-20T02:17:22;7.50;99.90
21037;DHT22;10677;50.942;4.028;2023-12-20T02:19:49;7.50;99.90
21037;DHT22;10677;50.942;4.028;2023-12-20T02:22:15;7.50;99.90
21037;DHT22;10677;50.942;4.028;2023-12-20T02:24:41;7.60;99.90
21037;DHT22;10677;50.942;4.028;2023-12-20T02:27:07;7.50;99.90
21037;DHT22;10677;50.942;4.028;2023-12-20T02:29:34;7.50;99.90
21037;DHT22;10677;50.942;4.028;2023-12-20T02:32:00;7.60;99.90
21037;DHT22;10677;50.942;4.028;2023-12-20T02:34:26;7.60;99.90
21037;DHT22;10677;50.942;4.028;2023-12-20T02:36:52;7.60;99.90
21037;DHT22;10677;50.942;4.028;2023-12-20T02:39:20;7.60;99.90
21037;DHT22;10677;50.942;4.028;2023-12-20T02:41:46;7.60;99.90
21037;DHT22;10677;50.942;4.028;2023-12-20T02:47:34;7.70;99.90
21037;DHT22;10677;50.942;4.028;2023-12-20T02:49:59;7.70;99.90
21037;DHT22;10677;50.942;4.028;2023-12-20T02:52:25;7.70;99.90
21037;DHT22;10677;50.942;4.028;2023-12-20T02:54:51;7.80;99.90
21037;DHT22;10677;50.942;4.028;2023-12-20T02:57:16;7.80;99.90
21037;DHT22;10677;50.942;4.028;2023-12-20T02:59:42;7.80;99.90
21037;DHT22;10677;50.942;4.028;2023-12-20T03:02:09;7.80;99.90
21037;DHT22;10677;50.942;4.028;2023-12-20T03:04:35;7.80;99.90
21037;DHT22;10677;50.942;4.028;2023-12-20T03:07:00;7.80;99.90
21037;DHT22;10677;50.942;4.028;2023-12-20T03:09:26;7.90;99.90
21037;DHT22;10677;50.942;4.028;2023-12-20T03:11:52;7.90;99.90
21037;DHT22;10677;50.942;4.028;2023-12-20T03:14:17;7.90;99.90
21037;DHT22;10677;50.942;4.028;2023-12-20T03:16:48;7.80;99.90
21037;DHT22;10677;50.942;4.028;2023-12-20T03:19:15;7.80;99.90
21037;DHT22;10677;50.942;4.028;2023-12-20T03:21:41;7.70;99.90
21037;DHT22;10677;50.942;4.028;2023-12-20T03:24:07;7.80;99.90
21037;DHT22;10677;50.942;4.028;2023-12-20T03:26:32;7.80;99.90
21037;DHT22;10677;50.942;4.028;2023-12-20T03:28:58;7.60;99.90
21037;DHT22;10677;50.942;4.028;2023-12-20T03:31:24;7.60;99.90
21037;DHT22;10677;50.942;4.028;2023-12-20T03:33:49;7.60;99.90
21037;DHT22;10677;50.942;4.028;2023-12-20T03:36:16;7.50;99.90
21037;DHT22;10677;50.942;4.028;2023-12-20T03:38:42;7.50;99.90
21037;DHT22;10677;50.942;4.028;2023-12-20T03:41:07;7.50;99.90
21037;DHT22;10677;50.942;4.028;2023-12-20T03:43:33;7.60;99.90
21037;DHT22;10677;50.942;4.028;2023-12-20T03:45:59;7.60;99.90
21037;DHT22;10677;50.942;4.028;2023-12-20T03:48:25;7.50;99.90
21037;DHT22;10677;50.942;4.028;2023-12-20T03:50:51;7.50;99.90
21037;DHT22;10677;50.942;4.028;2023-12-20T03:53:18;7.50;99.90
21037;DHT22;10677;50.942;4.028;2023-12-20T03:55:44;7.50;99.90
21037;DHT22;10677;50.942;4.028;2023-12-20T03:58:11;7.40;99.90
21037;DHT22;10677;50.942;4.028;2023-12-20T04:00:37;7.40;99.90
21037;DHT22;10677;50.942;4.028;2023-12-20T04:03:02;7.40;99.90
21037;DHT22;10677;50.942;4.028;2023-12-20T04:05:28;7.30;99.90
21037;DHT22;10677;50.942;4.028;2023-12-20T04:07:54;7.40;99.90
21037;DHT22;10677;50.942;4.028;2023-12-20T04:10:19;7.20;99.90
21037;DHT22;10677;50.942;4.028;2023-12-20T04:12:45;7.20;99.90
21037;DHT22;10677;50.942;4.028;2023-12-20T04:15:11;7.20;99.90
21037;DHT22;10677;50.942;4.028;2023-12-20T04:17:37;7.20;99.90
21037;DHT22;10677;50.942;4.028;2023-12-20T04:20:03;7.20;99.90
21037;DHT22;10677;50.942;4.028;2023-12-20T04:22:29;7.20;99.90
21037;DHT22;10677;50.942;4.028;2023-12-20T04:24:54;7.20;99.90
21037;DHT22;10677;50.942;4.028;2023-12-20T04:27:20;7.20;99.90
21037;DHT22;10677;50.942;4.028;2023-12-20T04:29:46;7.20;99.90
21037;DHT22;10677;50.942;4.028;2023-12-20T04:32:11;7.20;99.90
21037;DHT22;10677;50.942;4.028;2023-12-20T04:34:37;7.20;99.90
21037;DHT22;10677;50.942;4.028;2023-12-20T04:37:03;7.20;99.90
21037;DHT22;10677;50.942;4.028;2023-12-20T04:39:29;7.20;99.90
21037;DHT22;10677;50.942;4.028;2023-12-20T04:41:55;7.30;99.90
21037;DHT22;10677;50.942;4.028;2023-12-20T04:44:20;7.30;99.90
21037;DHT22;10677;50.942;4.028;2023-12-20T04:46:46;7.20;99.90
21037;DHT22;10677;50.942;4.028;2023-12-20T04:49:12;7.20;99.90
21037;DHT22;10677;50.942;4.028;2023-12-20T04:51:38;7.20;99.90
21037;DHT22;10677;50.942;4.028;2023-12-20T04:54:03;7.20;99.90
21037;DHT22;10677;50.942;4.028;2023-12-20T04:56:29;7.20;99.90
21037;DHT22;10677;50.942;4.028;2023-12-20T04:58:55;7.10;99.90
21037;DHT22;10677;50.942;4.028;2023-12-20T05:01:20;7.10;99.90
21037;DHT22;10677;50.942;4.028;2023-12-20T05:03:47;7.10;99.90
21037;DHT22;10677;50.942;4.028;2023-12-20T05:06:14;7.00;99.90
21037;DHT22;10677;50.942;4.028;2023-12-20T05:08:40;6.90;99.90
21037;DHT22;10677;50.942;4.028;2023-12-20T05:11:06;6.90;99.90
21037;DHT22;10677;50.942;4.028;2023-12-20T05:13:32;6.90;99.90
21037;DHT22;10677;50.942;4.028;2023-12-20T05:15:57;6.70;99.90
21037;DHT22;10677;50.942;4.028;2023-12-20T05:18:23;6.80;99.90
21037;DHT22;10677;50.942;4.028;2023-12-20T05:20:50;6.90;99.90
21037;DHT22;10677;50.942;4.028;2023-12-20T05:23:16;6.90;99.90
21037;DHT22;10677;50.942;4.028;2023-12-20T05:25:42;6.90;99.90
21037;DHT22;10677;50.942;4.028;2023-12-20T05:28:08;6.90;99.90
21037;DHT22;10677;50.942;4.028;2023-12-20T05:30:34;6.80;99.90
21037;DHT22;10677;50.942;4.028;2023-12-20T05:32:59;6.80;99.90
21037;DHT22;10677;50.942;4.028;2023-12-20T05:35:25;6.80;99.90
21037;DHT22;10677;50.942;4.028;2023-12-20T05:37:51;6.80;99.90
21037;DHT22;10677;50.942;4.028;2023-12-20T05:40:16;6.70;99.90
21037;DHT22;10677;50.942;4.028;2023-12-20T05:42:42;6.80;99.90
21037;DHT22;10677;50.942;4.028;2023-12-20T05:45:09;6.80;99.90
21037;DHT22;10677;50.942;4.028;2023-12-20T05:47:35;6.80;99.90
21037;DHT22;10677;50.942;4.028;2023-12-20T05:50:00;6.80;99.90
21037;DHT22;10677;50.942;4.028;2023-12-20T05:52:26;6.80;99.90
21037;DHT22;10677;50.942;4.028;2023-12-20T05:54:51;7.00;99.90
21037;DHT22;10677;50.942;4.028;2023-12-20T05:57:17;7.00;99.90
21037;DHT22;10677;50.942;4.028;2023-12-20T05:59:43;7.10;99.90
21037;DHT22;10677;50.942;4.028;2023-12-20T06:02:09;7.10;99.90
21037;DHT22;10677;50.942;4.028;2023-12-20T06:04:34;7.10;99.90
21037;DHT22;10677;50.942;4.028;2023-12-20T06:07:00;7.10;99.90
21037;DHT22;10677;50.942;4.028;2023-12-20T06:09:30;7.20;99.90
21037;DHT22;10677;50.942;4.028;2023-12-20T06:11:56;7.20;99.90
21037;DHT22;10677;50.942;4.028;2023-12-20T06:14:21;7.10;99.90
21037;DHT22;10677;50.942;4.028;2023-12-20T06:16:47;7.20;99.90
21037;DHT22;10677;50.942;4.028;2023-12-20T06:19:13;7.10;99.90
21037;DHT22;10677;50.942;4.028;2023-12-20T06:21:39;7.10;99.90
21037;DHT22;10677;50.942;4.028;2023-12-20T06:24:05;7.00;99.90
21037;DHT22;10677;50.942;4.028;2023-12-20T06:26:30;7.00;99.90
21037;DHT22;10677;50.942;4.028;2023-12-20T06:28:56;7.00;99.90
21037;DHT22;10677;50.942;4.028;2023-12-20T06:31:22;6.90;99.90
21037;DHT22;10677;50.942;4.028;2023-12-20T06:33:47;6.90;99.90
21037;DHT22;10677;50.942;4.028;2023-12-20T06:36:15;6.80;99.90
21037;DHT22;10677;50.942;4.028;2023-12-20T06:38:40;6.90;99.90
21037;DHT22;10677;50.942;4.028;2023-12-20T06:41:07;6.90;99.90
21037;DHT22;10677;50.942;4.028;2023-12-20T06:43:33;6.80;99.90
21037;DHT22;10677;50.942;4.028;2023-12-20T06:46:00;6.90;99.90
21037;DHT22;10677;50.942;4.028;2023-12-20T06:48:26;6.80;99.90
21037;DHT22;10677;50.942;4.028;2023-12-20T06:50:52;6.70;99.90
21037;DHT22;10677;50.942;4.028;2023-12-20T06:53:18;6.70;99.90
21037;DHT22;10677;50.942;4.028;2023-12-20T06:55:43;6.70;99.90
21037;DHT22;10677;50.942;4.028;2023-12-20T06:58:09;6.80;99.90
21037;DHT22;10677;50.942;4.028;2023-12-20T07:00:35;6.80;99.90
21037;DHT22;10677;50.942;4.028;2023-12-20T07:03:01;6.70;99.90
21037;DHT22;10677;50.942;4.028;2023-12-20T07:05:26;6.70;99.90
21037;DHT22;10677;50.942;4.028;2023-12-20T07:07:52;6.80;99.90
21037;DHT22;10677;50.942;4.028;2023-12-20T07:10:18;6.70;99.90
21037;DHT22;10677;50.942;4.028;2023-12-20T07:12:44;6.70;99.90
21037;DHT22;10677;50.942;4.028;2023-12-20T07:15:10;6.70;99.90
21037;DHT22;10677;50.942;4.028;2023-12-20T07:17:37;6.60;99.90
21037;DHT22;10677;50.942;4.028;2023-12-20T07:20:03;6.60;99.90
21037;DHT22;10677;50.942;4.028;2023-12-20T07:22:30;6.60;99.90
21037;DHT22;10677;50.942;4.028;2023-12-20T07:24:59;6.60;99.90
21037;DHT22;10677;50.942;4.028;2023-12-20T07:27:25;6.60;99.90
21037;DHT22;10677;50.942;4.028;2023-12-20T07:30:09;6.50;99.90
21037;DHT22;10677;50.942;4.028;2023-12-20T07:32:36;6.60;99.90
21037;DHT22;10677;50.942;4.028;2023-12-20T07:35:02;6.60;99.90
21037;DHT22;10677;50.942;4.028;2023-12-20T07:37:30;6.60;99.90
21037;DHT22;10677;50.942;4.028;2023-12-20T07:39:56;6.60;99.90
21037;DHT22;10677;50.942;4.028;2023-12-20T07:42:22;6.50;99.90
21037;DHT22;10677;50.942;4.028;2023-12-20T07:44:48;6.50;99.90
21037;DHT22;10677;50.942;4.028;2023-12-20T07:47:13;6.50;99.90
21037;DHT22;10677;50.942;4.028;2023-12-20T07:49:42;6.60;99.90
21037;DHT22;10677;50.942;4.028;2023-12-20T07:52:09;6.50;99.90
21037;DHT22;10677;50.942;4.028;2023-12-20T07:54:35;6.60;99.90
21037;DHT22;10677;50.942;4.028;2023-12-20T07:57:00;6.70;99.90
21037;DHT22;10677;50.942;4.028;2023-12-20T07:59:26;6.60;99.90
21037;DHT22;10677;50.942;4.028;2023-12-20T08:01:52;6.70;99.90
21037;DHT22;10677;50.942;4.028;2023-12-20T08:04:17;6.60;99.90
21037;DHT22;10677;50.942;4.028;2023-12-20T08:06:43;6.60;99.90
21037;DHT22;10677;50.942;4.028;2023-12-20T08:09:09;6.60;99.90
21037;DHT22;10677;50.942;4.028;2023-12-20T08:11:35;6.50;99.90
21037;DHT22;10677;50.942;4.028;2023-12-20T08:14:01;6.60;99.90
21037;DHT22;10677;50.942;4.028;2023-12-20T08:16:27;6.70;99.90
21037;DHT22;10677;50.942;4.028;2023-12-20T08:18:52;6.70;99.90
21037;DHT22;10677;50.942;4.028;2023-12-20T08:21:20;6.70;99.90
21037;DHT22;10677;50.942;4.028;2023-12-20T08:23:48;6.70;99.90
21037;DHT22;10677;50.942;4.028;2023-12-20T08:26:18;6.80;99.90
21037;DHT22;10677;50.942;4.028;2023-12-20T08:28:46;6.70;99.90
21037;DHT22;10677;50.942;4.028;2023-12-20T08:31:19;6.80;99.90
21037;DHT22;10677;50.942;4.028;2023-12-20T08:33:45;6.80;99.90
21037;DHT22;10677;50.942;4.028;2023-12-20T08:36:11;6.70;99.90
21037;DHT22;10677;50.942;4.028;2023-12-20T08:38:37;6.80;99.90
21037;DHT22;10677;50.942;4.028;2023-12-20T08:41:03;6.80;99.90
21037;DHT22;10677;50.942;4.028;2023-12-20T08:43:33;6.80;99.90
21037;DHT22;10677;50.942;4.028;2023-12-20T08:45:59;6.90;99.90
21037;DHT22;10677;50.942;4.028;2023-12-20T08:48:25;6.90;99.90
21037;DHT22;10677;50.942;4.028;2023-12-20T08:50:51;7.00;99.90
21037;DHT22;10677;50.942;4.028;2023-12-20T08:53:18;7.00;99.90
21037;DHT22;10677;50.942;4.028;2023-12-20T08:55:44;7.00;99.90
21037;DHT22;10677;50.942;4.028;2023-12-20T08:58:10;7.10;99.90
21037;DHT22;10677;50.942;4.028;2023-12-20T09:00:36;7.00;99.90
21037;DHT22;10677;50.942;4.028;2023-12-20T09:03:02;7.10;99.90
21037;DHT22;10677;50.942;4.028;2023-12-20T09:05:28;7.00;99.90
21037;DHT22;10677;50.942;4.028;2023-12-20T09:07:54;7.10;99.90
21037;DHT22;10677;50.942;4.028;2023-12-20T09:10:20;7.10;99.90
21037;DHT22;10677;50.942;4.028;2023-12-20T09:12:49;7.10;99.90
21037;DHT22;10677;50.942;4.028;2023-12-20T09:15:15;7.20;99.90
21037;DHT22;10677;50.942;4.028;2023-12-20T09:17:40;7.20;99.90
21037;DHT22;10677;50.942;4.028;2023-12-20T09:20:07;7.30;99.90
21037;DHT22;10677;50.942;4.028;2023-12-20T09:22:34;7.30;99.90
21037;DHT22;10677;50.942;4.028;2023-12-20T09:25:00;7.40;99.90
21037;DHT22;10677;50.942;4.028;2023-12-20T09:27:28;7.40;99.90
21037;DHT22;10677;50.942;4.028;2023-12-20T09:29:54;7.40;99.90
21037;DHT22;10677;50.942;4.028;2023-12-20T09:32:19;7.50;99.90
21037;DHT22;10677;50.942;4.028;2023-12-20T09:34:48;7.60;99.90
21037;DHT22;10677;50.942;4.028;2023-12-20T09:37:14;7.70;99.90
21037;DHT22;10677;50.942;4.028;2023-12-20T09:39:41;7.80;99.90
21037;DHT22;10677;50.942;4.028;2023-12-20T09:42:07;7.80;99.90
21037;DHT22;10677;50.942;4.028;2023-12-20T09:44:34;7.90;99.90
21037;DHT22;10677;50.942;4.028;2023-12-20T09:47:03;7.80;99.90
21037;DHT22;10677;50.942;4.028;2023-12-20T09:49:30;7.70;99.90
21037;DHT22;10677;50.942;4.028;2023-12-20T09:51:56;7.70;99.90
21037;DHT22;10677;50.942;4.028;2023-12-20T09:54:22;7.70;99.90
21037;DHT22;10677;50.942;4.028;2023-12-20T09:56:48;7.70;99.90
21037;DHT22;10677;50.942;4.028;2023-12-20T09:59:14;7.70;99.90
21037;DHT22;10677;50.942;4.028;2023-12-20T10:01:41;7.80;99.90
21037;DHT22;10677;50.942;4.028;2023-12-20T10:04:09;7.80;99.90
21037;DHT22;10677;50.942;4.028;2023-12-20T10:06:41;7.90;99.90
21037;DHT22;10677;50.942;4.028;2023-12-20T10:09:08;7.90;99.90
21037;DHT22;10677;50.942;4.028;2023-12-20T10:12:11;8.00;99.90
21037;DHT22;10677;50.942;4.028;2023-12-20T10:14:38;8.10;99.90
21037;DHT22;10677;50.942;4.028;2023-12-20T10:17:05;8.10;99.90
21037;DHT22;10677;50.942;4.028;2023-12-20T10:19:32;8.20;99.90
21037;DHT22;10677;50.942;4.028;2023-12-20T10:21:59;8.30;99.90
21037;DHT22;10677;50.942;4.028;2023-12-20T10:24:28;8.50;99.90
21037;DHT22;10677;50.942;4.028;2023-12-20T10:27:04;8.50;99.90
21037;DHT22;10677;50.942;4.028;2023-12-20T10:29:37;8.50;99.90
21037;DHT22;10677;50.942;4.028;2023-12-20T10:35:11;8.50;99.90
21037;DHT22;10677;50.942;4.028;2023-12-20T10:37:37;8.50;99.90
21037;DHT22;10677;50.942;4.028;2023-12-20T10:40:05;8.60;99.90
21037;DHT22;10677;50.942;4.028;2023-12-20T10:42:32;8.70;99.90
21037;DHT22;10677;50.942;4.028;2023-12-20T10:44:59;8.70;99.90
21037;DHT22;10677;50.942;4.028;2023-12-20T10:47:25;8.70;99.90
21037;DHT22;10677;50.942;4.028;2023-12-20T10:49:54;8.80;99.90
21037;DHT22;10677;50.942;4.028;2023-12-20T10:52:23;8.80;99.90
21037;DHT22;10677;50.942;4.028;2023-12-20T10:54:48;8.80;99.90
21037;DHT22;10677;50.942;4.028;2023-12-20T10:57:17;8.80;99.90
21037;DHT22;10677;50.942;4.028;2023-12-20T10:59:45;8.90;99.90
21037;DHT22;10677;50.942;4.028;2023-12-20T11:02:14;8.90;99.90
21037;DHT22;10677;50.942;4.028;2023-12-20T11:09:58;9.10;99.90
21037;DHT22;10677;50.942;4.028;2023-12-20T11:12:58;9.10;99.90
21037;DHT22;10677;50.942;4.028;2023-12-20T11:15:27;9.10;99.90
21037;DHT22;10677;50.942;4.028;2023-12-20T11:17:57;9.10;99.90
21037;DHT22;10677;50.942;4.028;2023-12-20T11:20:24;9.20;99.90
21037;DHT22;10677;50.942;4.028;2023-12-20T11:23:00;9.30;99.90
21037;DHT22;10677;50.942;4.028;2023-12-20T11:25:26;9.40;99.90
21037;DHT22;10677;50.942;4.028;2023-12-20T11:31:03;9.50;99.90
21037;DHT22;10677;50.942;4.028;2023-12-20T11:33:36;9.50;99.90
21037;DHT22;10677;50.942;4.028;2023-12-20T11:36:03;9.50;99.90
21037;DHT22;10677;50.942;4.028;2023-12-20T11:38:38;9.60;99.90
21037;DHT22;10677;50.942;4.028;2023-12-20T11:41:07;9.50;99.90
21037;DHT22;10677;50.942;4.028;2023-12-20T11:43:36;9.50;99.90
21037;DHT22;10677;50.942;4.028;2023-12-20T11:46:06;9.50;99.90
21037;DHT22;10677;50.942;4.028;2023-12-20T11:48:33;9.50;99.90
21037;DHT22;10677;50.942;4.028;2023-12-20T11:51:00;9.50;99.90
21037;DHT22;10677;50.942;4.028;2023-12-20T11:53:25;9.50;99.90
21037;DHT22;10677;50.942;4.028;2023-12-20T11:55:51;9.50;99.90
21037;DHT22;10677;50.942;4.028;2023-12-20T11:58:17;9.60;99.90
21037;DHT22;10677;50.942;4.028;2023-12-20T12:00:43;9.70;99.90
21037;DHT22;10677;50.942;4.028;2023-12-20T12:03:09;9.70;99.90
21037;DHT22;10677;50.942;4.028;2023-12-20T12:05:35;9.70;99.90
21037;DHT22;10677;50.942;4.028;2023-12-20T12:08:03;9.70;99.90
21037;DHT22;10677;50.942;4.028;2023-12-20T12:10:29;9.80;99.90
21037;DHT22;10677;50.942;4.028;2023-12-20T12:12:55;9.80;99.90
21037;DHT22;10677;50.942;4.028;2023-12-20T12:15:21;9.80;99.90
21037;DHT22;10677;50.942;4.028;2023-12-20T12:17:56;9.80;99.90
21037;DHT22;10677;50.942;4.028;2023-12-20T12:20:23;9.80;99.90
21037;DHT22;10677;50.942;4.028;2023-12-20T12:22:59;9.80;99.90
21037;DHT22;10677;50.942;4.028;2023-12-20T12:25:25;9.80;99.90
21037;DHT22;10677;50.942;4.028;2023-12-20T12:27:51;9.80;99.90
21037;DHT22;10677;50.942;4.028;2023-12-20T12:30:17;9.70;99.90
21037;DHT22;10677;50.942;4.028;2023-12-20T12:32:47;9.70;99.90
21037;DHT22;10677;50.942;4.028;2023-12-20T12:35:14;9.70;99.90
21037;DHT22;10677;50.942;4.028;2023-12-20T12:37:40;9.80;99.90
21037;DHT22;10677;50.942;4.028;2023-12-20T12:40:10;9.80;99.90
21037;DHT22;10677;50.942;4.028;2023-12-20T12:42:37;9.90;99.90
21037;DHT22;10677;50.942;4.028;2023-12-20T12:45:03;9.80;99.90
21037;DHT22;10677;50.942;4.028;2023-12-20T12:47:29;9.80;99.90
21037;DHT22;10677;50.942;4.028;2023-12-20T12:49:56;9.90;99.90
21037;DHT22;10677;50.942;4.028;2023-12-20T12:52:21;9.90;99.90
21037;DHT22;10677;50.942;4.028;2023-12-20T12:54:48;10.00;99.90
21037;DHT22;10677;50.942;4.028;2023-12-20T12:57:14;10.10;99.90
21037;DHT22;10677;50.942;4.028;2023-12-20T12:59:42;10.30;99.90
21037;DHT22;10677;50.942;4.028;2023-12-20T13:02:08;10.40;99.90
21037;DHT22;10677;50.942;4.028;2023-12-20T13:04:36;10.40;99.90
21037;DHT22;10677;50.942;4.028;2023-12-20T13:07:02;10.40;99.90
21037;DHT22;10677;50.942;4.028;2023-12-20T13:09:28;10.40;99.90
21037;DHT22;10677;50.942;4.028;2023-12-20T13:11:53;10.40;99.90
21037;DHT22;10677;50.942;4.028;2023-12-20T13:14:19;10.50;99.90
21037;DHT22;10677;50.942;4.028;2023-12-20T13:16:45;10.50;99.90
21037;DHT22;10677;50.942;4.028;2023-12-20T13:19:11;10.50;99.90
21037;DHT22;10677;50.942;4.028;2023-12-20T13:21:36;10.40;99.90
21037;DHT22;10677;50.942;4.028;2023-12-20T13:24:03;10.40;99.90
21037;DHT22;10677;50.942;4.028;2023-12-20T13:26:28;10.30;99.90
21037;DHT22;10677;50.942;4.028;2023-12-20T13:28:54;10.20;99.90
21037;DHT22;10677;50.942;4.028;2023-12-20T13:31:20;10.30;99.90
21037;DHT22;10677;50.942;4.028;2023-12-20T13:33:46;10.40;99.90
21037;DHT22;10677;50.942;4.028;2023-12-20T13:36:13;10.40;99.90
21037;DHT22;10677;50.942;4.028;2023-12-20T13:38:39;10.50;99.90
21037;DHT22;10677;50.942;4.028;2023-12-20T13:41:07;10.60;99.90
21037;DHT22;10677;50.942;4.028;2023-12-20T13:43:32;10.70;99.90
21037;DHT22;10677;50.942;4.028;2023-12-20T13:46:00;10.70;99.90
21037;DHT22;10677;50.942;4.028;2023-12-20T13:48:25;10.70;99.90
21037;DHT22;10677;50.942;4.028;2023-12-20T13:50:52;10.60;99.90
21037;DHT22;10677;50.942;4.028;2023-12-20T13:53:19;10.60;99.90
21037;DHT22;10677;50.942;4.028;2023-12-20T13:55:45;10.60;99.90
21037;DHT22;10677;50.942;4.028;2023-12-20T13:58:11;10.60;99.90
21037;DHT22;10677;50.942;4.028;2023-12-20T14:00:37;10.50;99.90
21037;DHT22;10677;50.942;4.028;2023-12-20T14:03:04;10.50;99.90
21037;DHT22;10677;50.942;4.028;2023-12-20T14:05:30;10.50;99.90
21037;DHT22;10677;50.942;4.028;2023-12-20T14:07:56;10.50;99.90
21037;DHT22;10677;50.942;4.028;2023-12-20T14:10:25;10.40;99.90
21037;DHT22;10677;50.942;4.028;2023-12-20T14:12:54;10.50;99.90
21037;DHT22;10677;50.942;4.028;2023-12-20T14:15:20;10.50;99.90
21037;DHT22;10677;50.942;4.028;2023-12-20T14:17:46;10.50;99.90
21037;DHT22;10677;50.942;4.028;2023-12-20T14:20:11;10.50;99.90
21037;DHT22;10677;50.942;4.028;2023-12-20T14:22:41;10.50;99.90
21037;DHT22;10677;50.942;4.028;2023-12-20T14:25:15;10.50;99.90
21037;DHT22;10677;50.942;4.028;2023-12-20T14:27:42;10.50;99.90
21037;DHT22;10677;50.942;4.028;2023-12-20T14:30:11;10.60;99.90
21037;DHT22;10677;50.942;4.028;2023-12-20T14:32:37;10.60;99.90
21037;DHT22;10677;50.942;4.028;2023-12-20T14:35:05;10.70;99.90
21037;DHT22;10677;50.942;4.028;2023-12-20T14:37:31;10.60;99.90
21037;DHT22;10677;50.942;4.028;2023-12-20T14:39:57;10.60;99.90
21037;DHT22;10677;50.942;4.028;2023-12-20T14:42:23;10.60;99.90
21037;DHT22;10677;50.942;4.028;2023-12-20T14:44:49;10.50;99.90
21037;DHT22;10677;50.942;4.028;2023-12-20T14:47:17;10.50;99.90
21037;DHT22;10677;50.942;4.028;2023-12-20T14:49:43;10.50;99.90
21037;DHT22;10677;50.942;4.028;2023-12-20T14:52:09;10.50;99.90
21037;DHT22;10677;50.942;4.028;2023-12-20T14:54:38;10.40;99.90
21037;DHT22;10677;50.942;4.028;2023-12-20T14:57:04;10.40;99.90
21037;DHT22;10677;50.942;4.028;2023-12-20T14:59:31;10.30;99.90
21037;DHT22;10677;50.942;4.028;2023-12-20T15:01:57;10.30;99.90
21037;DHT22;10677;50.942;4.028;2023-12-20T15:04:24;10.40;99.90
21037;DHT22;10677;50.942;4.028;2023-12-20T15:06:53;10.50;99.90
21037;DHT22;10677;50.942;4.028;2023-12-20T15:09:20;10.40;99.90
21037;DHT22;10677;50.942;4.028;2023-12-20T15:11:46;10.50;99.90
21037;DHT22;10677;50.942;4.028;2023-12-20T15:14:12;10.40;99.90
21037;DHT22;10677;50.942;4.028;2023-12-20T15:16:43;10.40;99.90
21037;DHT22;10677;50.942;4.028;2023-12-20T15:19:09;10.40;99.90
21037;DHT22;10677;50.942;4.028;2023-12-20T15:21:35;10.50;99.90
21037;DHT22;10677;50.942;4.028;2023-12-20T15:24:05;10.60;99.90
21037;DHT22;10677;50.942;4.028;2023-12-20T15:26:38;10.50;99.90
21037;DHT22;10677;50.942;4.028;2023-12-20T15:29:04;10.50;99.90
21037;DHT22;10677;50.942;4.028;2023-12-20T15:31:31;10.50;99.90
21037;DHT22;10677;50.942;4.028;2023-12-20T15:33:58;10.50;99.90
21037;DHT22;10677;50.942;4.028;2023-12-20T15:36:24;10.50;99.90
21037;DHT22;10677;50.942;4.028;2023-12-20T15:38:51;10.60;99.90
21037;DHT22;10677;50.942;4.028;2023-12-20T15:41:18;10.50;99.90
21037;DHT22;10677;50.942;4.028;2023-12-20T15:43:44;10.60;99.90
21037;DHT22;10677;50.942;4.028;2023-12-20T15:46:10;10.60;99.90
21037;DHT22;10677;50.942;4.028;2023-12-20T15:48:36;10.50;99.90
21037;DHT22;10677;50.942;4.028;2023-12-20T15:51:09;10.50;99.90
21037;DHT22;10677;50.942;4.028;2023-12-20T15:53:35;10.40;99.90